METAR Data
IDs: Format: Raw Decoded Include TAF

Data at: 0013 UTC 30 May 2020

METAR for:KM54 (Lebanon Muni, TN, US)
Text:KM54 292350Z AUTO 30003KT 10SM SCT050 SCT055 BKN100 26/17 A3000 RMK A01
Temperature: 26.0°C ( 79°F)
Dewpoint: 17.0°C ( 63°F) [RH = 58%]
Pressure (altimeter):30.00 inches Hg (1016.0 mb)
Winds:from the WNW (300 degrees) at 3 MPH (3 knots; 1.5 m/s)
Visibility:10 or more sm (16+ km)
Ceiling:10000 feet AGL
Clouds: scattered clouds at 5000 feet AGL, scattered clouds at 5500 feet AGL, broken clouds at 10000 feet AGL
QC Flag:automated observation with no human augmentation